createdAt,value
2023-04-21T00:00:53.865Z,9.40
2023-04-21T00:03:23.989Z,9.40
2023-04-21T00:05:51.646Z,9.40
2023-04-21T00:08:19.732Z,9.50
2023-04-21T00:10:49.462Z,9.50
2023-04-21T00:13:16.494Z,9.50
2023-04-21T00:15:43.650Z,9.50
2023-04-21T00:18:10.832Z,9.50
2023-04-21T00:20:39.436Z,9.50
2023-04-21T00:23:06.414Z,9.50
2023-04-21T00:25:33.425Z,9.50
2023-04-21T00:28:00.465Z,9.50
2023-04-21T00:30:27.467Z,9.50
2023-04-21T00:32:54.560Z,9.50
2023-04-21T00:35:21.662Z,9.50
2023-04-21T00:37:50.376Z,9.50
2023-04-21T00:40:17.473Z,9.50
2023-04-21T00:42:44.426Z,9.50
2023-04-21T00:45:11.941Z,9.40
2023-04-21T00:47:38.979Z,9.40
2023-04-21T00:50:06.385Z,9.40
2023-04-21T00:52:35.102Z,9.40
2023-04-21T00:55:02.757Z,9.30
2023-04-21T00:57:31.909Z,9.30
2023-04-21T00:59:58.998Z,9.30
2023-04-21T01:02:26.391Z,9.20
2023-04-21T01:04:53.463Z,9.20
2023-04-21T01:07:21.032Z,9.20
2023-04-21T01:09:47.972Z,9.20
2023-04-21T01:12:15.134Z,9.10
2023-04-21T01:14:42.210Z,9.10
2023-04-21T01:17:09.423Z,9.10
2023-04-21T01:19:40.211Z,9.10
2023-04-21T01:22:11.288Z,9.00
2023-04-21T01:24:47.364Z,9.00
2023-04-21T01:27:18.842Z,9.00
2023-04-21T01:29:47.370Z,9.00
2023-04-21T01:32:17.720Z,9.00
2023-04-21T01:34:45.488Z,9.00
2023-04-21T01:37:15.688Z,9.00
2023-04-21T01:39:46.018Z,9.00
2023-04-21T01:42:14.197Z,8.90
2023-04-21T01:44:41.186Z,8.90
2023-04-21T01:47:09.318Z,8.90
2023-04-21T01:49:36.283Z,8.90
2023-04-21T01:52:03.331Z,8.90
2023-04-21T01:54:30.755Z,8.90
2023-04-21T01:56:58.174Z,8.90
2023-04-21T01:59:25.297Z,8.90
2023-04-21T02:01:52.346Z,8.90
2023-04-21T02:04:19.578Z,8.90
2023-04-21T02:06:46.557Z,8.80
2023-04-21T02:09:13.547Z,8.80
2023-04-21T02:11:40.522Z,8.80
2023-04-21T02:14:07.650Z,8.80
2023-04-21T02:16:34.673Z,8.80
2023-04-21T02:19:01.652Z,8.80
2023-04-21T02:21:28.848Z,8.80
2023-04-21T02:23:55.795Z,8.80
2023-04-21T02:26:22.829Z,8.80
2023-04-21T02:28:50.490Z,8.80
2023-04-21T02:31:18.935Z,8.80
2023-04-21T02:33:46.482Z,8.80
2023-04-21T02:36:13.669Z,8.80
2023-04-21T02:38:40.669Z,8.70
2023-04-21T02:41:07.703Z,8.70
2023-04-21T02:43:34.831Z,8.70
2023-04-21T02:46:09.062Z,8.70
2023-04-21T02:48:36.924Z,8.60
2023-04-21T02:51:04.847Z,8.60
2023-04-21T02:53:31.996Z,8.60
2023-04-21T02:55:59.024Z,8.60
2023-04-21T02:58:26.032Z,8.50
2023-04-21T03:00:52.989Z,8.50
2023-04-21T03:03:20.176Z,8.50
2023-04-21T03:05:47.358Z,8.50
2023-04-21T03:08:14.553Z,8.50
2023-04-21T03:10:41.765Z,8.50
2023-04-21T03:13:08.769Z,8.50
2023-04-21T03:15:35.782Z,8.50
2023-04-21T03:18:03.033Z,8.50
2023-04-21T03:20:30.010Z,8.50
2023-04-21T03:22:56.969Z,8.50
2023-04-21T03:25:24.125Z,8.50
2023-04-21T03:27:51.179Z,8.50
2023-04-21T03:30:18.113Z,8.50
2023-04-21T03:32:45.134Z,8.50
2023-04-21T03:35:12.255Z,8.50
2023-04-21T03:37:39.224Z,8.50
2023-04-21T03:40:07.303Z,8.50
2023-04-21T03:42:34.729Z,8.50
2023-04-21T03:45:06.458Z,8.40
2023-04-21T03:47:33.496Z,8.40
2023-04-21T03:50:00.665Z,8.40
2023-04-21T03:52:27.571Z,8.40
2023-04-21T03:54:54.550Z,8.40
2023-04-21T03:57:21.509Z,8.40
2023-04-21T03:59:48.472Z,8.40
2023-04-21T04:02:15.618Z,8.40
2023-04-21T04:04:42.753Z,8.30
2023-04-21T04:07:10.369Z,8.30
2023-04-21T04:09:37.340Z,8.30
2023-04-21T04:12:04.627Z,8.40
2023-04-21T04:14:31.632Z,8.40
2023-04-21T04:16:59.637Z,8.40
2023-04-21T04:19:32.789Z,8.40
2023-04-21T04:22:03.005Z,8.40
2023-04-21T04:24:33.606Z,8.50
2023-04-21T04:27:02.729Z,8.50
2023-04-21T04:29:30.035Z,8.60
2023-04-21T04:31:58.246Z,8.60
2023-04-21T04:34:25.309Z,8.60
2023-04-21T04:36:52.378Z,8.70
2023-04-21T04:39:19.590Z,8.70
2023-04-21T04:41:47.236Z,8.80
2023-04-21T04:44:16.044Z,8.80
2023-04-21T04:46:43.077Z,8.90
2023-04-21T04:49:10.095Z,9.00
2023-04-21T04:51:37.179Z,9.00
2023-04-21T04:54:04.338Z,9.10
2023-04-21T04:56:31.422Z,9.10
2023-04-21T04:58:58.410Z,9.20
2023-04-21T05:01:30.430Z,9.20
2023-04-21T05:03:57.982Z,9.20
2023-04-21T05:06:25.412Z,9.40
2023-04-21T05:08:52.438Z,9.40
2023-04-21T05:11:19.504Z,9.70
2023-04-21T05:13:46.490Z,10.00
2023-04-21T05:16:13.507Z,10.30
2023-04-21T05:18:40.836Z,10.40
2023-04-21T05:21:07.857Z,10.60
2023-04-21T05:23:34.857Z,10.70
2023-04-21T05:26:04.181Z,10.70
2023-04-21T05:28:32.092Z,10.70
2023-04-21T05:30:59.167Z,10.70
2023-04-21T05:33:27.080Z,10.70
2023-04-21T05:35:54.141Z,10.70
2023-04-21T05:38:21.278Z,10.70
2023-04-21T05:40:57.128Z,10.80
2023-04-21T05:43:24.101Z,10.90
2023-04-21T05:45:51.133Z,10.90
2023-04-21T05:48:18.289Z,11.00
2023-04-21T05:50:45.368Z,11.00
2023-04-21T05:53:12.365Z,11.00
2023-04-21T05:55:39.332Z,11.10
2023-04-21T05:58:06.376Z,11.10
2023-04-21T06:00:33.571Z,11.20
2023-04-21T06:03:00.811Z,11.30
2023-04-21T06:05:27.903Z,11.30
2023-04-21T06:07:54.931Z,11.40
2023-04-21T06:10:22.101Z,11.50
2023-04-21T06:12:49.299Z,11.50
2023-04-21T06:15:16.479Z,11.60
2023-04-21T06:17:43.543Z,11.70
2023-04-21T06:20:11.844Z,11.80
2023-04-21T06:22:38.834Z,11.90
2023-04-21T06:25:06.704Z,11.90
2023-04-21T06:27:33.816Z,12.00
2023-04-21T06:30:00.780Z,12.10
2023-04-21T06:32:27.802Z,12.20
2023-04-21T06:34:54.779Z,12.30
2023-04-21T06:37:21.761Z,12.40
2023-04-21T06:39:48.702Z,12.50
2023-04-21T06:42:15.697Z,12.60
2023-04-21T06:44:42.730Z,12.70
2023-04-21T06:47:09.840Z,12.80
2023-04-21T06:49:37.614Z,12.90
2023-04-21T06:52:05.248Z,13.00
2023-04-21T06:54:32.256Z,13.10
2023-04-21T06:56:59.213Z,13.20
2023-04-21T06:59:26.614Z,13.30
2023-04-21T07:01:53.747Z,13.40
2023-04-21T07:04:21.082Z,13.50
2023-04-21T07:06:49.341Z,13.60
2023-04-21T07:09:16.323Z,13.70
2023-04-21T07:11:43.234Z,13.80
2023-04-21T07:14:11.136Z,13.90
2023-04-21T07:16:38.129Z,14.00
2023-04-21T07:19:05.362Z,14.00
2023-04-21T07:21:36.327Z,14.10
2023-04-21T07:24:04.394Z,14.10
2023-04-21T07:26:32.102Z,14.20
2023-04-21T07:28:59.142Z,14.20
2023-04-21T07:31:26.210Z,14.30
2023-04-21T07:33:53.203Z,14.50
2023-04-21T07:36:20.229Z,14.50
2023-04-21T07:38:47.227Z,14.70
2023-04-21T07:41:14.297Z,14.70
2023-04-21T07:43:41.469Z,14.90
2023-04-21T07:46:08.494Z,14.90
2023-04-21T07:48:35.716Z,15.00
2023-04-21T07:51:03.890Z,15.20
2023-04-21T07:53:31.203Z,15.30
2023-04-21T07:55:58.876Z,15.30
2023-04-21T07:58:25.937Z,15.40
2023-04-21T08:00:52.986Z,15.50
2023-04-21T08:03:22.184Z,15.60
2023-04-21T08:05:51.034Z,15.70
2023-04-21T08:08:20.551Z,15.90
2023-04-21T08:10:47.664Z,16.10
2023-04-21T08:13:14.658Z,16.40
2023-04-21T08:15:41.787Z,16.60
2023-04-21T08:18:09.578Z,16.80
2023-04-21T08:20:36.687Z,16.90
2023-04-21T08:23:03.717Z,17.00
2023-04-21T08:25:31.174Z,17.20
2023-04-21T08:27:58.277Z,17.30
2023-04-21T08:30:28.041Z,17.40
2023-04-21T08:32:55.216Z,17.50
2023-04-21T08:35:22.167Z,17.60
2023-04-21T08:37:50.590Z,17.70
2023-04-21T08:40:19.129Z,17.90
2023-04-21T08:42:47.203Z,18.20
2023-04-21T08:45:14.258Z,18.40
2023-04-21T08:47:42.195Z,18.50
2023-04-21T08:50:13.872Z,18.70
2023-04-21T08:52:41.102Z,18.70
2023-04-21T08:55:10.045Z,18.70
2023-04-21T08:57:37.068Z,18.70
2023-04-21T09:00:07.441Z,18.60
2023-04-21T09:02:59.557Z,18.60
2023-04-21T09:05:30.557Z,18.60
2023-04-21T09:08:12.485Z,18.60
2023-04-21T09:10:48.044Z,18.70
2023-04-21T09:13:16.212Z,18.80
2023-04-21T09:15:45.607Z,19.00
2023-04-21T09:18:17.154Z,19.00
2023-04-21T09:20:45.775Z,19.00
2023-04-21T09:23:13.458Z,19.10
2023-04-21T09:25:45.182Z,19.20
2023-04-21T09:28:13.966Z,19.30
2023-04-21T09:30:43.410Z,19.30
2023-04-21T09:33:30.730Z,19.20
2023-04-21T09:36:03.294Z,19.00
2023-04-21T09:38:30.437Z,19.00
2023-04-21T09:41:00.527Z,18.90
2023-04-21T09:43:27.503Z,18.80
2023-04-21T09:45:56.129Z,18.70
2023-04-21T09:48:28.769Z,18.60
2023-04-21T09:53:29.749Z,18.60
2023-04-21T09:55:59.740Z,18.50
2023-04-21T09:58:31.436Z,18.50
2023-04-21T10:00:58.669Z,18.50
2023-04-21T10:03:28.928Z,18.50
2023-04-21T10:05:56.640Z,18.50
2023-04-21T10:08:23.797Z,18.50
2023-04-21T10:10:53.065Z,18.40
2023-04-21T10:13:20.413Z,18.50
2023-04-21T10:15:47.509Z,18.50
2023-04-21T10:18:23.764Z,18.50
2023-04-21T10:20:58.392Z,18.60
2023-04-21T10:23:44.077Z,18.70
2023-04-21T10:26:19.225Z,18.70
2023-04-21T10:28:57.507Z,18.80
2023-04-21T10:31:53.063Z,18.90
2023-04-21T10:34:25.941Z,19.00
2023-04-21T10:36:56.111Z,19.10
2023-04-21T10:39:32.024Z,19.10
2023-04-21T10:42:19.899Z,19.30
2023-04-21T10:45:02.350Z,19.60
2023-04-21T10:47:41.381Z,19.80
2023-04-21T10:50:29.678Z,20.10
2023-04-21T10:53:11.498Z,20.30
2023-04-21T10:55:39.355Z,20.40
2023-04-21T10:58:09.354Z,20.50
2023-04-21T11:00:40.453Z,20.60
2023-04-21T11:03:08.688Z,20.70
2023-04-21T11:05:38.874Z,20.90
2023-04-21T11:08:14.957Z,20.90
2023-04-21T11:10:56.054Z,20.90
2023-04-21T11:13:24.815Z,21.10
2023-04-21T11:16:03.474Z,21.10
2023-04-21T11:18:38.604Z,21.20
2023-04-21T11:21:24.924Z,21.30
2023-04-21T11:23:56.635Z,21.40
2023-04-21T11:26:35.079Z,21.50
2023-04-21T11:29:03.732Z,21.40
2023-04-21T11:31:31.235Z,21.40
2023-04-21T11:34:00.077Z,21.40
2023-04-21T11:36:27.531Z,21.40
2023-04-21T11:38:54.527Z,21.50
2023-04-21T11:41:25.659Z,21.40
2023-04-21T11:43:53.087Z,21.40
2023-04-21T11:46:24.997Z,21.40
2023-04-21T11:49:05.916Z,21.40
2023-04-21T11:51:43.125Z,21.30
2023-04-21T11:54:14.439Z,21.40
2023-04-21T11:56:43.165Z,21.30
2023-04-21T11:59:19.720Z,21.30
2023-04-21T12:01:48.207Z,21.30
2023-04-21T12:04:24.791Z,21.30
2023-04-21T12:07:03.010Z,21.40
2023-04-21T12:09:30.596Z,21.50
2023-04-21T12:11:59.132Z,21.70
2023-04-21T12:14:27.141Z,21.70
2023-04-21T12:16:56.025Z,21.80
2023-04-21T12:19:36.335Z,21.80
2023-04-21T12:22:11.801Z,21.70
2023-04-21T12:24:38.864Z,21.70
2023-04-21T12:27:06.761Z,21.80
2023-04-21T12:29:37.993Z,21.70
2023-04-21T12:32:06.611Z,21.70
2023-04-21T12:34:34.126Z,21.70
2023-04-21T12:37:01.349Z,21.70
2023-04-21T12:39:29.681Z,21.70
2023-04-21T12:41:57.905Z,21.80
2023-04-21T12:44:26.019Z,21.80
2023-04-21T12:46:53.855Z,21.80
2023-04-21T12:49:20.944Z,21.80
2023-04-21T12:51:50.229Z,21.90
2023-04-21T12:54:17.622Z,22.00
2023-04-21T12:56:44.957Z,22.00
2023-04-21T12:59:12.209Z,22.00
2023-04-21T13:01:40.709Z,22.00
2023-04-21T13:04:08.338Z,21.90
2023-04-21T13:06:35.715Z,22.00
2023-04-21T13:09:03.287Z,22.10
2023-04-21T13:11:30.432Z,22.20
2023-04-21T13:13:58.319Z,22.20
2023-04-21T13:16:26.292Z,22.20
2023-04-21T13:18:54.908Z,22.10
2023-04-21T13:21:21.850Z,22.10
2023-04-21T13:23:48.933Z,22.00
2023-04-21T13:26:16.320Z,22.00
2023-04-21T13:28:43.377Z,22.00
2023-04-21T13:31:10.745Z,22.10
2023-04-21T13:33:38.195Z,22.00
2023-04-21T13:36:05.532Z,22.10
2023-04-21T13:38:33.104Z,22.20
2023-04-21T13:41:00.096Z,22.30
2023-04-21T13:43:27.212Z,22.40
2023-04-21T13:45:54.250Z,22.30
2023-04-21T13:48:22.184Z,22.30
2023-04-21T13:50:49.293Z,22.20
2023-04-21T13:53:17.626Z,22.30
2023-04-21T13:55:45.915Z,22.30
2023-04-21T13:58:14.317Z,22.40
2023-04-21T14:00:41.677Z,22.40
2023-04-21T14:03:10.010Z,22.20
2023-04-21T14:05:37.378Z,22.20
2023-04-21T14:08:04.658Z,22.20
2023-04-21T14:10:31.606Z,22.20
2023-04-21T14:12:58.630Z,22.20
2023-04-21T14:15:26.512Z,22.20
2023-04-21T14:17:53.801Z,22.30
2023-04-21T14:20:20.959Z,22.30
2023-04-21T14:22:48.092Z,22.20
2023-04-21T14:25:15.270Z,22.20
2023-04-21T14:27:42.329Z,22.20
2023-04-21T14:30:10.679Z,22.20
2023-04-21T14:32:37.935Z,22.30
2023-04-21T14:35:05.887Z,22.30
2023-04-21T14:37:33.376Z,22.30
2023-04-21T14:40:00.370Z,22.20
2023-04-21T14:42:27.495Z,22.30
2023-04-21T14:44:54.480Z,22.10
2023-04-21T14:47:22.268Z,22.10
2023-04-21T14:49:55.040Z,22.20
2023-04-21T14:52:24.793Z,22.10
2023-04-21T14:54:51.846Z,22.20
2023-04-21T14:57:21.049Z,22.10
2023-04-21T14:59:52.587Z,22.10
2023-04-21T15:02:21.113Z,22.00
2023-04-21T15:04:48.685Z,22.00
2023-04-21T15:07:18.780Z,22.00
2023-04-21T15:09:50.209Z,21.90
2023-04-21T15:12:17.355Z,22.00
2023-04-21T15:14:44.752Z,22.10
2023-04-21T15:17:11.823Z,22.00
2023-04-21T15:19:38.930Z,22.00
2023-04-21T15:22:06.297Z,22.00
2023-04-21T15:24:33.360Z,22.10
2023-04-21T15:27:00.497Z,22.10
2023-04-21T15:29:27.476Z,22.10
2023-04-21T15:31:54.490Z,22.10
2023-04-21T15:34:21.538Z,22.10
2023-04-21T15:36:48.681Z,22.00
2023-04-21T15:39:15.759Z,22.00
2023-04-21T15:41:42.907Z,22.00
2023-04-21T15:44:10.852Z,21.90
2023-04-21T15:46:38.026Z,21.90
2023-04-21T15:49:05.226Z,21.80
2023-04-21T15:51:33.465Z,21.70
2023-04-21T15:54:00.598Z,21.70
2023-04-21T15:56:27.599Z,21.70
2023-04-21T15:58:54.578Z,21.70
2023-04-21T16:01:22.544Z,21.70
2023-04-21T16:03:50.249Z,21.70
2023-04-21T16:06:17.345Z,21.60
2023-04-21T16:08:44.972Z,21.60
2023-04-21T16:11:12.288Z,21.40
2023-04-21T16:13:39.335Z,21.40
2023-04-21T16:16:07.231Z,21.40
2023-04-21T16:18:34.554Z,21.30
2023-04-21T16:21:01.768Z,21.20
2023-04-21T16:23:28.817Z,21.10
2023-04-21T16:25:56.064Z,21.00
2023-04-21T16:28:23.307Z,20.90
2023-04-21T16:30:50.575Z,20.90
2023-04-21T16:33:17.752Z,20.80
2023-04-21T16:35:44.852Z,20.80
2023-04-21T16:38:12.053Z,20.70
2023-04-21T16:40:39.166Z,20.60
2023-04-21T16:43:06.211Z,20.60
2023-04-21T16:45:33.174Z,20.50
2023-04-21T16:48:00.379Z,20.50
2023-04-21T16:50:27.505Z,20.40
2023-04-21T16:52:54.579Z,20.40
2023-04-21T16:55:21.672Z,20.40
2023-04-21T16:57:48.788Z,20.30
2023-04-21T17:00:16.522Z,20.20
2023-04-21T17:02:43.667Z,20.20
2023-04-21T17:05:12.395Z,20.10
2023-04-21T17:07:42.639Z,20.10
2023-04-21T17:10:09.901Z,20.00
2023-04-21T17:12:37.005Z,20.00
2023-04-21T17:15:05.203Z,20.00
2023-04-21T17:17:43.284Z,20.00
2023-04-21T17:20:12.208Z,19.90
2023-04-21T17:22:40.184Z,19.80
2023-04-21T17:25:08.389Z,19.70
2023-04-21T17:27:36.779Z,19.60
2023-04-21T17:30:05.339Z,19.50
2023-04-21T17:32:34.005Z,19.30
2023-04-21T17:35:01.559Z,19.10
2023-04-21T17:37:30.521Z,18.90
2023-04-21T17:40:00.364Z,18.80
2023-04-21T17:42:29.326Z,18.70
2023-04-21T17:44:56.267Z,18.50
2023-04-21T17:47:23.298Z,18.40
2023-04-21T17:49:50.421Z,18.30
2023-04-21T17:52:17.516Z,18.10
2023-04-21T17:54:44.556Z,18.00
2023-04-21T17:57:12.026Z,17.90
2023-04-21T17:59:39.810Z,17.80
2023-04-21T18:02:08.005Z,17.70
2023-04-21T18:04:35.641Z,17.60
2023-04-21T18:07:03.830Z,17.50
2023-04-21T18:09:31.729Z,17.40
2023-04-21T18:11:59.094Z,17.30
2023-04-21T18:14:26.857Z,17.20
2023-04-21T18:16:54.373Z,17.10
2023-04-21T18:19:21.490Z,17.00
2023-04-21T18:21:48.635Z,16.90
2023-04-21T18:24:15.830Z,16.80
2023-04-21T18:26:44.292Z,16.60
2023-04-21T18:29:11.849Z,16.60
2023-04-21T18:31:39.908Z,16.40
2023-04-21T18:34:08.744Z,16.40
2023-04-21T18:36:37.721Z,16.20
2023-04-21T18:39:05.873Z,16.10
2023-04-21T18:41:33.712Z,16.00
2023-04-21T18:44:01.207Z,16.00
2023-04-21T18:46:28.399Z,15.90
2023-04-21T18:48:56.179Z,15.70
2023-04-21T18:51:23.948Z,15.70
2023-04-21T18:53:53.010Z,15.60
2023-04-21T18:56:20.516Z,15.50
2023-04-21T18:58:47.784Z,15.40
2023-04-21T19:01:16.712Z,15.40
2023-04-21T19:03:45.184Z,15.30
2023-04-21T19:06:12.427Z,15.20
2023-04-21T19:08:42.819Z,15.10
2023-04-21T19:11:18.738Z,15.00
2023-04-21T19:13:47.418Z,15.00
2023-04-21T19:16:16.629Z,14.90
2023-04-21T19:18:43.962Z,14.90
2023-04-21T19:21:14.028Z,14.80
2023-04-21T19:23:42.448Z,14.70
2023-04-21T19:26:12.483Z,14.70
2023-04-21T19:28:41.223Z,14.60
2023-04-21T19:31:09.148Z,14.60
2023-04-21T19:33:37.293Z,14.60
2023-04-21T19:36:05.142Z,14.50
2023-04-21T19:38:33.559Z,14.40
2023-04-21T19:41:00.812Z,14.40
2023-04-21T19:43:28.475Z,14.30
2023-04-21T19:45:55.981Z,14.30
2023-04-21T19:48:23.242Z,14.30
2023-04-21T19:50:50.518Z,14.20
2023-04-21T19:53:18.924Z,14.10
2023-04-21T19:55:47.003Z,14.10
2023-04-21T19:58:22.086Z,14.00
2023-04-21T20:00:56.392Z,14.00
2023-04-21T20:03:24.302Z,13.90
2023-04-21T20:05:52.284Z,13.90
2023-04-21T20:08:19.554Z,13.80
2023-04-21T20:10:47.288Z,13.70
2023-04-21T20:13:14.737Z,13.70
2023-04-21T20:15:42.521Z,13.60
2023-04-21T20:18:10.370Z,13.50
2023-04-21T20:20:37.966Z,13.50
2023-04-21T20:23:05.898Z,13.40
2023-04-21T20:25:33.304Z,13.40
2023-04-21T20:28:01.045Z,13.30
2023-04-21T20:30:28.577Z,13.30
2023-04-21T20:32:56.437Z,13.20
2023-04-21T20:35:23.883Z,13.10
2023-04-21T20:37:51.324Z,13.10
2023-04-21T20:40:19.137Z,13.10
2023-04-21T20:42:46.226Z,13.00
2023-04-21T20:45:13.681Z,13.00
2023-04-21T20:47:41.302Z,12.90
2023-04-21T20:50:09.095Z,12.90
2023-04-21T20:52:36.864Z,12.80
2023-04-21T20:55:04.026Z,12.80
2023-04-21T20:57:31.089Z,12.70
2023-04-21T20:59:58.237Z,12.70
2023-04-21T21:02:25.385Z,12.60
2023-04-21T21:04:52.503Z,12.60
2023-04-21T21:07:19.577Z,12.50
2023-04-21T21:09:46.633Z,12.50
2023-04-21T21:12:13.663Z,12.50
2023-04-21T21:14:40.747Z,12.40
2023-04-21T21:17:08.330Z,12.40
2023-04-21T21:19:35.560Z,12.40
2023-04-21T21:22:02.558Z,12.30
2023-04-21T21:24:29.661Z,12.30
2023-04-21T21:26:57.443Z,12.30
2023-04-21T21:29:24.799Z,12.20
2023-04-21T21:31:51.806Z,12.20
2023-04-21T21:34:18.804Z,12.10
2023-04-21T21:36:45.984Z,12.00
2023-04-21T21:39:12.967Z,12.00
2023-04-21T21:41:40.052Z,12.00
2023-04-21T21:44:07.922Z,11.90
2023-04-21T21:46:34.937Z,11.90
2023-04-21T21:49:01.925Z,11.80
2023-04-21T21:51:29.049Z,11.80
2023-04-21T21:53:56.057Z,11.70
2023-04-21T21:56:24.306Z,11.70
2023-04-21T21:58:51.354Z,11.70
2023-04-21T22:01:18.472Z,11.60
2023-04-21T22:03:45.864Z,11.60
2023-04-21T22:06:14.902Z,11.50
2023-04-21T22:08:43.892Z,11.40
2023-04-21T22:11:11.078Z,11.40
2023-04-21T22:13:38.036Z,11.30
2023-04-21T22:16:05.182Z,11.30
2023-04-21T22:18:32.198Z,11.30
2023-04-21T22:20:59.814Z,11.30
2023-04-21T22:23:26.987Z,11.20
2023-04-21T22:25:53.954Z,11.20
2023-04-21T22:28:21.056Z,11.20
2023-04-21T22:30:48.079Z,11.10
2023-04-21T22:33:15.099Z,11.10
2023-04-21T22:35:42.098Z,11.10
2023-04-21T22:38:09.060Z,11.10
2023-04-21T22:40:36.184Z,11.10
2023-04-21T22:43:03.901Z,11.00
2023-04-21T22:45:30.897Z,11.00
2023-04-21T22:47:58.040Z,11.00
2023-04-21T22:50:25.738Z,10.90
2023-04-21T22:52:52.866Z,10.90
2023-04-21T22:55:19.835Z,10.90
2023-04-21T22:57:46.903Z,10.90
2023-04-21T23:00:15.591Z,10.80
2023-04-21T23:02:42.805Z,10.80
2023-04-21T23:05:10.069Z,10.80
2023-04-21T23:07:37.069Z,10.70
2023-04-21T23:10:04.339Z,10.70
2023-04-21T23:12:31.395Z,10.70
2023-04-21T23:14:58.364Z,10.70
2023-04-21T23:17:25.543Z,10.60
2023-04-21T23:19:52.673Z,10.60
2023-04-21T23:22:19.686Z,10.60
2023-04-21T23:24:46.694Z,10.50
2023-04-21T23:27:13.651Z,10.50
2023-04-21T23:29:40.939Z,10.40
2023-04-21T23:32:08.214Z,10.40
2023-04-21T23:34:35.444Z,10.30
2023-04-21T23:37:02.504Z,10.30
2023-04-21T23:39:29.565Z,10.30
2023-04-21T23:41:56.640Z,10.30
2023-04-21T23:44:23.720Z,10.30
2023-04-21T23:46:51.356Z,10.30
2023-04-21T23:49:18.364Z,10.30
2023-04-21T23:51:45.401Z,10.30
2023-04-21T23:54:12.354Z,10.20
2023-04-21T23:56:39.335Z,10.20
2023-04-21T23:59:07.099Z,10.20
